Terminal Aerodrome Forecast
Issued by NWS Cleveland, OH

Home | Current Version | Previous Version | Graphics & Text | Print | Product List | Glossary Off
Versions: 1 2 3 4 5 6 7 8 9 10 11 12 13 14 15 16 17 18 19 20 21 22 23 24

000
FTUS41 KCLE 271100
TAFERI
TAF
KERI 271128Z 2712/2812 03009KT 4SM -SN BKN012 OVC025
      TEMPO 2712/2715 1 1/2SM -SN BKN009 OVC020
     FM271500 02010KT 4SM -SN BKN015 OVC025
     FM272200 35008KT P6SM BKN020
     FM280400 32005KT P6SM SCT020=

USA.gov is the U.S. government's official web portal to all federal, state and local government web resources and services.